Time;durP1;ratioP1;P1;durP2;ratioP2;P2;SDS_P1;SDS_P2;PMS_P1;PMS_P2;Temp;Humidity;BMP_temperature;BMP_pressure;BME280_temperature;BME280_humidity;BME280_pressure;Samples;Min_cycle;Max_cycle;Signal;HPM_P1;HPM_P2
2021/12/29 00:02:15;;;;;;;6.40;1.60;;;;;;;19.08;51.30;100010.28;5053702;28;20033;-67
2021/12/29 00:04:41;;;;;;;4.60;1.80;;;;;;;19.06;51.24;100006.97;5053151;28;20020;-67
2021/12/29 00:07:06;;;;;;;5.85;1.63;;;;;;;19.05;51.29;100021.16;5052724;28;20358;-67
2021/12/29 00:09:36;;;;;;;4.78;1.40;;;;;;;19.02;51.30;100017.00;5056578;28;20043;-67
2021/12/29 00:12:04;;;;;;;6.13;1.80;;;;;;;19.01;51.42;100020.63;5059823;28;20041;-67
2021/12/29 00:14:29;;;;;;;6.38;1.70;;;;;;;18.99;51.51;100030.53;5061202;28;20040;-66
2021/12/29 00:16:56;;;;;;;5.72;1.40;;;;;;;18.98;51.61;100039.41;5060332;28;20033;-66
2021/12/29 00:19:21;;;;;;;5.50;2.00;;;;;;;18.94;51.61;100045.97;5057370;28;20033;-66
2021/12/29 00:21:47;;;;;;;7.07;1.80;;;;;;;18.94;51.42;100064.44;5055418;28;20031;-67
2021/12/29 00:24:12;;;;;;;7.93;1.58;;;;;;;18.93;51.48;100067.22;5060376;28;20100;-67
2021/12/29 00:26:44;;;;;;;5.85;1.70;;;;;;;18.92;51.56;100070.88;5066571;28;20033;-66
2021/12/29 00:29:09;;;;;;;4.82;1.60;;;;;;;18.90;51.66;100072.81;5060803;28;20054;-67
2021/12/29 00:31:35;;;;;;;5.32;1.42;;;;;;;18.89;51.77;100071.16;5059103;28;20100;-67
2021/12/29 00:34:00;;;;;;;5.40;1.58;;;;;;;18.87;51.80;100073.94;5067640;28;20055;-68
2021/12/29 00:36:26;;;;;;;4.25;1.30;;;;;;;18.85;51.90;100079.38;5066043;28;20100;-67
2021/12/29 00:38:51;;;;;;;6.57;1.48;;;;;;;18.84;51.70;100082.16;5065014;28;20023;-66
2021/12/29 00:41:20;;;;;;;5.40;1.40;;;;;;;18.82;51.72;100087.56;5054027;28;20465;-66
2021/12/29 00:43:46;;;;;;;4.22;1.40;;;;;;;18.79;51.95;100087.84;5051968;28;20049;-63
2021/12/29 00:46:13;;;;;;;6.75;1.55;;;;;;;18.79;51.95;100103.69;5052876;28;20530;-67
2021/12/29 00:48:42;;;;;;;4.65;1.52;;;;;;;18.79;51.81;100113.44;5052007;28;20110;-66
2021/12/29 00:51:09;;;;;;;4.63;1.50;;;;;;;18.77;52.03;100105.66;5054104;28;20017;-66
2021/12/29 00:53:34;;;;;;;5.13;1.55;;;;;;;18.75;52.10;100112.88;5052374;28;20252;-67
2021/12/29 00:56:00;;;;;;;7.90;1.77;;;;;;;18.75;51.90;100118.16;5052073;28;20475;-66
2021/12/29 00:58:26;;;;;;;5.78;1.77;;;;;;;18.74;51.84;100113.88;5052465;28;20048;-66
2021/12/29 01:00:52;;;;;;;5.38;1.70;;;;;;;18.71;51.76;100114.16;5052461;28;20377;-67
2021/12/29 01:03:18;;;;;;;5.25;1.73;;;;;;;18.71;52.15;100127.34;5052113;28;20151;-66
2021/12/29 01:05:44;;;;;;;7.35;2.03;;;;;;;18.70;51.91;100138.88;5052424;28;20128;-66
2021/12/29 01:08:10;;;;;;;6.00;1.58;;;;;;;18.68;51.99;100146.94;5052927;28;20029;-66
2021/12/29 01:10:36;;;;;;;5.85;1.80;;;;;;;18.66;51.80;100148.06;5051463;28;20031;-67
2021/12/29 01:13:02;;;;;;;4.50;1.38;;;;;;;18.66;52.08;100151.53;5052381;28;20028;-67
2021/12/29 01:18:27;;;;;;;4.05;1.52;;;;;;;18.63;52.21;100166.84;5052708;28;20043;-66
2021/12/29 01:20:57;;;;;;;7.15;1.80;;;;;;;18.62;52.19;100170.44;5051954;28;20037;-66
2021/12/29 01:23:23;;;;;;;5.95;1.75;;;;;;;18.61;52.56;100172.25;5051373;28;20045;-66
2021/12/29 01:25:48;;;;;;;4.53;1.60;;;;;;;18.61;52.08;100174.03;5051962;28;20048;-67
2021/12/29 01:28:14;;;;;;;5.60;1.65;;;;;;;18.60;52.13;100191.69;5052452;28;20025;-66
2021/12/29 01:30:39;;;;;;;6.80;1.70;;;;;;;18.57;52.34;100191.97;5051346;28;20114;-67
2021/12/29 01:33:06;;;;;;;6.75;1.95;;;;;;;18.57;52.29;100188.53;5052321;28;20043;-67
2021/12/29 01:35:32;;;;;;;5.97;1.80;;;;;;;18.57;52.20;100214.91;5052069;28;20087;-66
2021/12/29 01:37:59;;;;;;;6.25;1.70;;;;;;;18.56;52.24;100221.16;5051473;28;20078;-67
2021/12/29 01:40:24;;;;;;;3.58;1.30;;;;;;;18.54;52.21;100215.19;5052089;28;20491;-66
2021/12/29 01:42:49;;;;;;;4.90;1.67;;;;;;;18.54;52.33;100231.03;5051831;28;20024;-66
2021/12/29 01:45:15;;;;;;;6.53;1.80;;;;;;;18.52;52.46;100243.50;5051207;28;20037;-66
2021/12/29 01:47:40;;;;;;;4.40;1.60;;;;;;;18.52;52.24;100238.22;5052008;28;20112;-66
2021/12/29 01:50:08;;;;;;;5.05;1.70;;;;;;;18.49;52.38;100237.53;5052239;28;20033;-66
2021/12/29 01:52:38;;;;;;;5.88;1.55;;;;;;;18.51;52.34;100242.69;5050982;28;20052;-66
2021/12/29 01:55:06;;;;;;;7.57;1.52;;;;;;;18.48;52.52;100250.88;5052309;28;20464;-66
2021/12/29 01:57:32;;;;;;;6.15;1.63;;;;;;;18.47;52.51;100255.34;5055567;28;20020;-66
2021/12/29 01:59:57;;;;;;;6.15;1.80;;;;;;;18.46;52.63;100256.28;5055086;28;20017;-66
2021/12/29 02:02:22;;;;;;;6.38;1.90;;;;;;;18.46;52.65;100261.56;5055762;28;20028;-67
2021/12/29 02:04:48;;;;;;;5.93;1.70;;;;;;;18.44;52.93;100268.81;5055316;28;20036;-67
2021/12/29 02:07:13;;;;;;;7.97;1.65;;;;;;;18.43;52.61;100267.13;5054702;28;20473;-66
2021/12/29 02:09:40;;;;;;;6.13;1.63;;;;;;;18.44;52.40;100278.53;5055222;28;20485;-67
2021/12/29 02:12:06;;;;;;;5.38;1.60;;;;;;;18.43;52.47;100274.22;5054896;28;20036;-66
2021/12/29 02:14:32;;;;;;;6.35;1.77;;;;;;;18.40;52.34;100267.41;5055109;28;20033;-66
2021/12/29 02:16:59;;;;;;;7.43;2.05;;;;;;;18.41;52.57;100286.72;5055515;28;20031;-66
2021/12/29 02:19:25;;;;;;;6.88;1.63;;;;;;;18.40;52.49;100272.69;5054658;28;20025;-66
2021/12/29 02:22:07;;;;;;;7.03;1.88;;;;;;;18.39;52.54;100286.88;5054915;28;20060;-66
2021/12/29 02:24:44;;;;;;;5.75;1.70;;;;;;;18.38;52.54;100279.91;5054814;28;20041;-66
2021/12/29 02:27:12;;;;;;;4.25;1.50;;;;;;;18.38;52.49;100285.19;5054440;28;20041;-66
2021/12/29 02:29:41;;;;;;;6.05;1.60;;;;;;;18.37;52.60;100282.69;5054895;28;20017;-66
2021/12/29 02:32:06;;;;;;;7.50;1.90;;;;;;;18.36;52.38;100283.66;5055030;28;20044;-67
2021/12/29 02:34:44;;;;;;;8.05;2.00;;;;;;;18.35;52.74;100290.75;5053909;28;20033;-66
2021/12/29 02:37:11;;;;;;;6.93;1.88;;;;;;;18.33;52.65;100284.78;5055191;28;20035;-66
2021/12/29 02:39:38;;;;;;;4.55;1.70;;;;;;;18.34;52.63;100283.81;5054707;28;20116;-66
2021/12/29 02:42:06;;;;;;;8.20;1.95;;;;;;;18.33;52.87;100297.16;5054228;28;20040;-66
2021/12/29 02:44:39;;;;;;;5.68;1.70;;;;;;;18.31;52.68;100292.84;5054351;28;20078;-66
2021/12/29 02:47:05;;;;;;;7.55;1.60;;;;;;;18.31;52.53;100297.28;5054799;28;20052;-66
2021/12/29 02:49:30;;;;;;;5.85;1.60;;;;;;;18.29;52.60;100288.66;5054023;28;20481;-67
2021/12/29 02:51:56;;;;;;;7.47;1.77;;;;;;;18.28;52.90;100281.75;5054801;28;20086;-67
2021/12/29 02:54:24;;;;;;;7.28;1.80;;;;;;;18.29;52.69;100286.03;5054262;28;20526;-66
2021/12/29 02:57:00;;;;;;;9.68;1.92;;;;;;;18.28;52.78;100287.84;5054381;28;20071;-68
2021/12/29 02:59:25;;;;;;;5.38;1.85;;;;;;;18.27;52.86;100294.06;5054494;28;20024;-67
2021/12/29 03:01:51;;;;;;;6.97;1.90;;;;;;;18.27;52.70;100302.00;5053463;28;20037;-67
2021/12/29 03:04:20;;;;;;;5.97;1.63;;;;;;;18.25;52.80;100306.56;5054616;28;20025;-68
2021/12/29 03:06:48;;;;;;;5.45;1.98;;;;;;;18.26;52.84;100313.53;5053523;28;20063;-68
2021/12/29 03:09:16;;;;;;;6.00;1.77;;;;;;;18.26;52.75;100317.94;5053666;28;20041;-67
2021/12/29 03:11:42;;;;;;;6.18;1.63;;;;;;;18.25;52.79;100321.56;5054079;28;20501;-67
2021/12/29 03:14:09;;;;;;;7.03;1.90;;;;;;;18.23;52.95;100326.13;5054295;28;20469;-67
2021/12/29 03:16:35;;;;;;;7.50;2.10;;;;;;;18.21;52.78;100338.63;5053385;28;20028;-67
2021/12/29 03:19:02;;;;;;;7.53;1.92;;;;;;;18.22;52.80;100343.78;5054091;28;20029;-67
2021/12/29 03:21:29;;;;;;;7.70;2.10;;;;;;;18.23;52.67;100344.59;5054272;28;20061;-68
2021/12/29 03:23:54;;;;;;;6.93;1.65;;;;;;;18.21;52.92;100346.56;5053120;28;20132;-68
2021/12/29 03:26:19;;;;;;;5.88;1.88;;;;;;;18.20;52.57;100356.28;5053989;28;20115;-68
2021/12/29 03:28:45;;;;;;;7.63;1.88;;;;;;;18.20;52.74;100360.69;5053680;28;20527;-68
2021/12/29 03:31:14;;;;;;;7.35;1.90;;;;;;;18.20;52.77;100368.63;5053476;28;20433;-67
2021/12/29 03:33:41;;;;;;;6.53;2.00;;;;;;;18.19;52.73;100369.59;5053776;28;20028;-68
2021/12/29 03:36:07;;;;;;;4.53;1.80;;;;;;;18.18;52.19;100363.47;5053972;28;20094;-67
2021/12/29 03:38:34;;;;;;;6.30;1.67;;;;;;;18.20;52.24;100369.47;5052925;28;20427;-67
2021/12/29 03:41:03;;;;;;;8.80;2.08;;;;;;;18.22;52.33;100367.50;5053819;28;20388;-68
2021/12/29 03:43:30;;;;;;;6.72;1.88;;;;;;;18.25;52.45;100371.69;5053405;28;20032;-67
2021/12/29 03:45:56;;;;;;;6.55;1.90;;;;;;;18.27;52.14;100373.22;5053740;28;20518;-68
2021/12/29 03:48:23;;;;;;;7.88;2.08;;;;;;;18.29;52.16;100381.84;5053685;28;20021;-67
2021/12/29 03:50:49;;;;;;;6.68;2.35;;;;;;;18.32;52.28;100386.00;5052583;28;20571;-67
2021/12/29 03:53:16;;;;;;;5.95;1.90;;;;;;;18.33;51.89;100387.66;5053477;28;20056;-67
2021/12/29 03:55:43;;;;;;;8.98;2.33;;;;;;;18.36;52.02;100394.44;5053096;28;20060;-66
2021/12/29 03:58:08;;;;;;;7.57;2.60;;;;;;;18.35;52.05;100396.28;5053082;28;20025;-67
2021/12/29 04:00:43;;;;;;;7.43;2.05;;;;;;;18.36;51.98;100399.72;5053362;28;20104;-67
2021/12/29 04:03:08;;;;;;;7.35;2.17;;;;;;;18.38;51.80;100401.28;5053515;28;20021;-66
2021/12/29 04:05:33;;;;;;;4.43;1.67;;;;;;;18.39;51.80;100400.31;5052340;28;20033;-66
2021/12/29 04:07:59;;;;;;;7.53;2.03;;;;;;;18.40;51.46;100403.78;5053282;28;20395;-66
2021/12/29 04:10:25;;;;;;;5.85;1.70;;;;;;;18.38;51.71;100397.81;5053157;28;20074;-66
2021/12/29 04:12:51;;;;;;;4.30;1.75;;;;;;;18.40;51.56;100409.06;5052373;28;20094;-66
2021/12/29 04:15:17;;;;;;;7.82;2.05;;;;;;;18.40;51.57;100401.13;5053294;28;20025;-67
2021/12/29 04:17:44;;;;;;;5.70;2.28;;;;;;;18.40;51.59;100412.50;5053152;28;20100;-67
2021/12/29 04:23:07;;;;;;;4.40;1.70;;;;;;;18.38;51.47;100411.00;5052980;28;20516;-66
2021/12/29 04:25:36;;;;;;;6.65;1.90;;;;;;;18.38;51.45;100419.75;5052778;28;20025;-66
2021/12/29 04:28:03;;;;;;;5.28;1.98;;;;;;;18.38;51.45;100411.81;5052773;28;20393;-67
2021/12/29 04:30:29;;;;;;;6.95;1.80;;;;;;;18.39;51.72;100421.41;5053192;28;20032;-67
2021/12/29 04:32:55;;;;;;;6.78;1.67;;;;;;;18.39;51.85;100418.78;5052099;28;20086;-67
2021/12/29 04:35:22;;;;;;;5.82;1.98;;;;;;;18.41;51.82;100440.56;5052815;28;20068;-68
2021/12/29 04:37:51;;;;;;;8.75;2.20;;;;;;;18.40;52.04;100430.97;5052691;28;20036;-67
2021/12/29 04:40:17;;;;;;;7.15;1.92;;;;;;;18.43;52.01;100440.44;5052071;28;20025;-67
2021/12/29 04:42:43;;;;;;;8.18;2.00;;;;;;;18.43;51.80;100443.09;5052654;28;20033;-66
2021/12/29 04:45:09;;;;;;;7.63;2.42;;;;;;;18.45;51.92;100444.63;5052826;28;20021;-67
2021/12/29 04:47:39;;;;;;;5.00;1.60;;;;;;;18.46;51.75;100462.09;5051865;28;20028;-67
2021/12/29 04:50:07;;;;;;;9.13;2.08;;;;;;;18.47;51.69;100455.03;5053120;28;20029;-67
2021/12/29 04:52:32;;;;;;;6.60;2.20;;;;;;;18.48;51.51;100454.06;5052389;28;20465;-67
2021/12/29 04:54:58;;;;;;;7.67;1.67;;;;;;;18.47;51.63;100466.44;5052161;28;20100;-66
2021/12/29 04:57:23;;;;;;;5.72;2.22;;;;;;;18.48;51.87;100467.25;5052547;28;20799;-67
2021/12/29 04:59:49;;;;;;;5.65;1.73;;;;;;;18.48;51.88;100475.16;5052474;28;20509;-66
2021/12/29 05:02:14;;;;;;;5.43;2.08;;;;;;;18.47;51.91;100479.63;5051866;28;20051;-66
2021/12/29 05:04:55;;;;;;;5.25;1.90;;;;;;;18.47;51.71;100471.69;5052233;28;20056;-67
2021/12/29 05:10:04;;;;;;;7.32;1.92;;;;;;;18.47;51.67;100473.50;5051896;28;20487;-66
2021/12/29 05:12:30;;;;;;;7.15;2.05;;;;;;;18.46;51.43;100467.38;5052279;28;20033;-66
2021/12/29 05:14:55;;;;;;;6.05;2.40;;;;;;;18.46;51.57;100466.56;5051705;28;20068;-66
2021/12/29 05:17:20;;;;;;;6.50;1.70;;;;;;;18.45;51.60;100459.59;5052788;28;20095;-66
2021/12/29 05:19:45;;;;;;;5.77;1.70;;;;;;;18.44;51.54;100465.88;5052363;28;20051;-66
2021/12/29 05:22:14;;;;;;;7.93;1.90;;;;;;;18.43;51.49;100465.00;5051764;28;20285;-67
2021/12/29 05:24:39;;;;;;;5.50;1.70;;;;;;;18.43;51.43;100470.28;5051893;28;20282;-66
2021/12/29 05:27:04;;;;;;;6.25;1.90;;;;;;;18.44;51.76;100473.78;5052404;28;20037;-66
2021/12/29 05:29:33;;;;;;;6.82;2.17;;;;;;;18.45;51.94;100484.19;5051200;28;20099;-66
2021/12/29 05:31:58;;;;;;;6.95;2.15;;;;;;;18.45;52.06;100486.84;5056101;28;20074;-67
2021/12/29 05:34:23;;;;;;;8.40;2.03;;;;;;;18.47;51.82;100481.44;5056410;28;20385;-67
2021/12/29 05:36:49;;;;;;;5.88;1.75;;;;;;;18.47;51.85;100487.53;5055411;28;20032;-67
2021/12/29 05:39:14;;;;;;;8.38;2.10;;;;;;;18.48;51.87;100496.28;5056163;28;20362;-67
2021/12/29 05:41:39;;;;;;;6.93;1.58;;;;;;;18.49;51.77;100490.03;5055782;28;20037;-67
2021/12/29 05:44:05;;;;;;;8.70;2.17;;;;;;;18.50;51.82;100497.00;5055247;28;20057;-67
2021/12/29 05:46:30;;;;;;;9.45;2.22;;;;;;;18.49;51.98;100496.13;5055955;28;20029;-67
2021/12/29 05:48:56;;;;;;;8.25;1.98;;;;;;;18.51;51.76;100492.53;5056032;28;20108;-67
2021/12/29 05:51:21;;;;;;;6.07;1.67;;;;;;;18.50;51.70;100494.34;5055248;28;20457;-67
2021/12/29 05:53:46;;;;;;;6.07;1.65;;;;;;;18.51;51.64;100497.81;5055630;28;20495;-66
2021/12/29 05:56:14;;;;;;;6.80;1.75;;;;;;;18.50;51.73;100494.34;5055675;28;20107;-67
2021/12/29 05:58:45;;;;;;;7.18;2.00;;;;;;;18.48;51.59;100494.50;5054504;28;20037;-66
2021/12/29 06:01:11;;;;;;;5.90;2.00;;;;;;;18.49;51.69;100500.59;5055887;28;20369;-66
2021/12/29 06:03:37;;;;;;;6.13;1.90;;;;;;;18.47;51.71;100490.16;5055442;28;20025;-66
2021/12/29 06:06:03;;;;;;;8.45;1.75;;;;;;;18.46;51.58;100496.41;5054887;28;20035;-67
2021/12/29 06:08:28;;;;;;;9.52;1.83;;;;;;;18.49;52.06;100504.06;5055519;28;20025;-66
2021/12/29 06:10:54;;;;;;;6.72;1.63;;;;;;;18.45;52.11;100494.75;5055229;28;20052;-66
2021/12/29 06:13:19;;;;;;;5.88;1.65;;;;;;;18.49;51.72;100511.97;5054680;28;20040;-67
2021/12/29 06:15:45;;;;;;;6.07;2.15;;;;;;;18.48;50.93;100512.09;5055300;28;20032;-67
2021/12/29 06:18:13;;;;;;;8.02;2.10;;;;;;;18.48;51.70;100517.38;5054876;28;20021;-67
2021/12/29 06:20:38;;;;;;;7.28;1.63;;;;;;;18.49;52.06;100524.34;5054566;28;20041;-68
2021/12/29 06:23:13;;;;;;;6.63;1.40;;;;;;;18.54;52.09;100530.03;5054908;28;20044;-67
2021/12/29 06:25:39;;;;;;;7.05;1.23;;;;;;;18.56;52.02;100527.28;5054082;28;20520;-68
2021/12/29 06:28:05;;;;;;;8.50;1.80;;;;;;;18.60;52.06;100534.78;5055353;28;20075;-67
2021/12/29 06:30:30;;;;;;;9.20;1.55;;;;;;;18.64;51.91;100532.69;5054827;28;20152;-67
2021/12/29 06:32:56;;;;;;;7.22;1.70;;;;;;;18.68;52.07;100534.13;5055054;28;20115;-66
2021/12/29 06:35:21;;;;;;;7.68;2.17;;;;;;;18.71;52.19;100540.91;5055284;28;20464;-66
2021/12/29 06:37:47;;;;;;;7.50;1.27;;;;;;;18.73;52.29;100547.72;5054697;28;20404;-67
2021/12/29 06:40:13;;;;;;;6.75;1.52;;;;;;;18.75;52.21;100545.78;5054218;28;20494;-68
2021/12/29 06:42:41;;;;;;;8.32;1.55;;;;;;;18.77;52.49;100546.50;5053844;28;20029;-67
2021/12/29 06:45:10;;;;;;;7.05;1.33;;;;;;;18.80;52.29;100548.00;5054987;28;20029;-68
2021/12/29 06:47:36;;;;;;;5.35;1.10;;;;;;;18.81;52.28;100547.88;5053962;28;20017;-68
2021/12/29 06:50:03;;;;;;;6.30;1.77;;;;;;;18.84;52.36;100549.47;5054830;28;20032;-67
2021/12/29 06:52:28;;;;;;;7.68;1.48;;;;;;;18.84;52.46;100555.56;5054999;28;20025;-69
2021/12/29 06:54:53;;;;;;;6.22;1.50;;;;;;;18.90;52.29;100564.75;5053753;28;20514;-67
2021/12/29 06:57:28;;;;;;;5.75;1.30;;;;;;;18.92;52.60;100562.81;5055306;28;20079;-67
2021/12/29 06:59:53;;;;;;;5.80;1.33;;;;;;;18.93;52.37;100553.94;5054938;28;20116;-69
2021/12/29 07:02:22;;;;;;;6.88;1.40;;;;;;;18.95;52.46;100546.69;5054567;28;20120;-67
2021/12/29 07:04:47;;;;;;;6.10;1.40;;;;;;;18.96;52.45;100543.09;5056209;28;20075;-68
2021/12/29 07:07:12;;;;;;;6.80;1.60;;;;;;;18.97;52.39;100551.84;5057969;28;20029;-68
2021/12/29 07:09:38;;;;;;;9.60;1.70;;;;;;;19.01;52.67;100553.25;5057664;28;20029;-69
2021/12/29 07:12:03;;;;;;;8.85;1.67;;;;;;;19.03;52.68;100567.13;5062863;28;20033;-69
2021/12/29 07:14:29;;;;;;;5.80;1.20;;;;;;;19.04;52.55;100582.00;5062489;28;20413;-69
2021/12/29 07:16:55;;;;;;;6.38;1.38;;;;;;;19.02;52.61;100576.03;5054605;28;20090;-62
2021/12/29 07:19:20;;;;;;;7.38;1.77;;;;;;;19.03;51.95;100581.16;5069792;28;20107;-66
2021/12/29 07:21:49;;;;;;;4.28;1.23;;;;;;;19.03;52.46;100580.34;5053216;28;20467;-67
2021/12/29 07:24:16;;;;;;;5.90;1.40;;;;;;;19.03;52.50;100578.53;5053951;28;20580;-67
2021/12/29 07:26:42;;;;;;;8.20;1.35;;;;;;;19.03;52.44;100589.09;5053817;28;20091;-67
2021/12/29 07:29:08;;;;;;;8.15;1.60;;;;;;;19.05;52.64;100594.25;5053404;28;20037;-67
2021/12/29 07:31:34;;;;;;;5.53;1.13;;;;;;;19.03;52.75;100594.38;5053774;28;20103;-67
2021/12/29 07:34:00;;;;;;;7.03;1.38;;;;;;;19.07;52.78;100599.38;5053913;28;20052;-67
2021/12/29 07:36:25;;;;;;;7.75;1.65;;;;;;;19.09;53.41;100608.00;5053056;28;20025;-67
2021/12/29 07:38:51;;;;;;;6.60;1.33;;;;;;;19.10;52.74;100612.31;5053693;28;20040;-67
2021/12/29 07:41:16;;;;;;;6.60;1.25;;;;;;;19.10;52.57;100614.97;5053692;28;20109;-67
2021/12/29 07:43:42;;;;;;;5.15;1.70;;;;;;;19.10;52.71;100615.78;5052898;28;20029;-68
2021/12/29 07:46:13;;;;;;;5.43;1.40;;;;;;;19.13;52.66;100619.97;5053578;28;20029;-68
2021/12/29 07:48:39;;;;;;;5.80;1.38;;;;;;;19.13;52.73;100610.22;5053415;28;20060;-67
2021/12/29 07:51:06;;;;;;;6.25;1.35;;;;;;;19.14;52.94;100605.81;5052740;28;20432;-65
2021/12/29 07:53:31;;;;;;;5.78;1.48;;;;;;;19.15;52.91;100612.75;5053265;28;20029;-67
2021/12/29 07:55:57;;;;;;;6.97;1.40;;;;;;;19.16;52.63;100612.59;5053386;28;20496;-66
2021/12/29 07:58:25;;;;;;;6.72;1.77;;;;;;;19.16;52.00;100598.56;5052804;28;20041;-69
2021/12/29 08:00:56;;;;;;;8.02;1.98;;;;;;;19.13;52.38;100599.66;5053140;28;20382;-69
2021/12/29 08:03:22;;;;;;;8.73;1.95;;;;;;;19.19;52.95;100603.56;5054141;28;20450;-69
2021/12/29 08:05:48;;;;;;;6.20;1.65;;;;;;;19.32;53.23;100612.06;5052832;28;20084;-65
2021/12/29 08:08:13;;;;;;;8.23;1.48;;;;;;;19.43;52.98;100608.47;5053616;28;20033;-65
2021/12/29 08:10:39;;;;;;;8.23;1.73;;;;;;;19.52;52.93;100604.16;5053294;28;20031;-66
2021/12/29 08:13:05;;;;;;;8.32;1.60;;;;;;;19.63;52.57;100616.38;5053137;28;20029;-67
2021/12/29 08:15:34;;;;;;;4.97;1.40;;;;;;;19.70;52.43;100614.84;5053325;28;20497;-64
2021/12/29 08:18:02;;;;;;;8.45;2.13;;;;;;;19.77;52.18;100615.16;5052701;28;20040;-63
2021/12/29 08:20:28;;;;;;;7.95;1.55;;;;;;;19.83;52.05;100612.78;5053222;28;20461;-66
2021/12/29 08:22:53;;;;;;;5.47;1.30;;;;;;;19.87;51.85;100616.00;5053196;28;20021;-66
2021/12/29 08:25:18;;;;;;;9.02;1.70;;;;;;;19.88;51.71;100613.16;5052681;28;20028;-66
2021/12/29 08:27:44;;;;;;;7.82;1.45;;;;;;;19.91;51.72;100614.72;5053040;28;20028;-65
2021/12/29 08:30:10;;;;;;;6.93;1.40;;;;;;;19.93;51.61;100618.91;5053080;28;20037;-67
2021/12/29 08:32:35;;;;;;;5.03;1.40;;;;;;;19.95;51.63;100626.69;5052009;28;20102;-67
2021/12/29 08:35:00;;;;;;;6.68;1.40;;;;;;;19.96;51.60;100632.81;5052926;28;20419;-69
2021/12/29 08:37:26;;;;;;;6.07;1.50;;;;;;;19.93;51.53;100621.53;5053024;28;20041;-67
2021/12/29 08:39:51;;;;;;;6.90;1.52;;;;;;;19.94;51.53;100625.84;5051962;28;20278;-67
2021/12/29 08:42:16;;;;;;;6.60;1.50;;;;;;;19.92;51.66;100616.38;5052497;28;20041;-67
2021/12/29 08:44:42;;;;;;;8.63;1.50;;;;;;;19.89;51.75;100614.03;5052609;28;20518;-67
2021/12/29 08:47:08;;;;;;;8.23;1.75;;;;;;;19.86;51.53;100616.94;5052001;28;20040;-67
2021/12/29 08:49:34;;;;;;;8.73;1.58;;;;;;;19.82;51.34;100618.19;5052466;28;20064;-66
2021/12/29 08:51:59;;;;;;;8.13;1.73;;;;;;;19.78;51.16;100615.00;5052849;28;20068;-67
2021/12/29 08:54:26;;;;;;;5.82;1.60;;;;;;;19.73;51.61;100619.88;5052029;28;20128;-67
2021/12/29 08:56:53;;;;;;;7.55;1.65;;;;;;;19.71;51.23;100621.78;5052684;28;20111;-66
2021/12/29 08:59:19;;;;;;;5.25;1.40;;;;;;;19.71;51.27;100624.44;5052889;28;20108;-65
2021/12/29 09:01:44;;;;;;;6.38;1.85;;;;;;;19.69;50.71;100616.66;5051594;28;20167;-66
2021/12/29 09:04:09;;;;;;;5.70;1.52;;;;;;;19.69;51.54;100627.25;5052501;28;20405;-67
2021/12/29 09:06:35;;;;;;;6.03;1.80;;;;;;;19.69;51.22;100627.25;5055269;28;20116;-66
2021/12/29 09:09:00;;;;;;;7.57;1.73;;;;;;;19.66;51.35;100621.38;5056007;28;20025;-66
2021/12/29 09:11:26;;;;;;;6.65;1.42;;;;;;;19.64;51.92;100618.06;5057055;28;20036;-68
2021/12/29 09:13:53;;;;;;;6.57;1.52;;;;;;;19.64;51.34;100615.41;5056477;28;20028;-67
2021/12/29 09:16:19;;;;;;;7.00;1.60;;;;;;;19.66;51.18;100618.75;5057077;28;20029;-66
2021/12/29 09:18:44;;;;;;;6.20;1.58;;;;;;;19.72;51.13;100619.00;5056950;28;20131;-67
2021/12/29 09:21:16;;;;;;;4.45;1.38;;;;;;;19.75;51.18;100618.72;5056550;28;20028;-66
2021/12/29 09:23:42;;;;;;;6.72;1.73;;;;;;;19.83;51.14;100618.06;5057362;28;20079;-66
2021/12/29 09:26:11;;;;;;;8.52;1.42;;;;;;;19.87;51.18;100616.81;5056655;28;20412;-66
2021/12/29 09:28:36;;;;;;;4.95;1.30;;;;;;;19.89;50.88;100614.84;5055725;28;20507;-64
2021/12/29 09:31:02;;;;;;;6.40;1.52;;;;;;;19.90;51.13;100598.03;5057160;28;20492;-65
2021/12/29 09:33:27;;;;;;;6.32;1.70;;;;;;;19.93;50.78;100605.66;5056690;28;20048;-66
2021/12/29 09:35:57;;;;;;;6.47;1.70;;;;;;;19.94;50.54;100604.69;5055612;28;20027;-64
2021/12/29 09:38:23;;;;;;;10.00;2.00;;;;;;;19.97;50.62;100608.03;5056284;28;20025;-65
2021/12/29 09:40:49;;;;;;;8.18;1.65;;;;;;;19.97;50.94;100613.31;5055985;28;20032;-69
2021/12/29 09:43:16;;;;;;;4.95;1.52;;;;;;;19.99;50.63;100609.53;5055685;28;20471;-66
2021/12/29 09:45:44;;;;;;;5.80;1.40;;;;;;;20.00;50.56;100619.16;5055797;28;20068;-65
2021/12/29 09:48:10;;;;;;;6.88;1.80;;;;;;;20.00;50.61;100613.88;5056066;28;20499;-65
2021/12/29 09:50:36;;;;;;;8.82;1.25;;;;;;;20.00;50.56;100607.75;5055169;28;20045;-64
2021/12/29 09:53:02;;;;;;;9.93;1.65;;;;;;;20.00;50.73;100597.16;5056501;28;20032;-68
2021/12/29 09:55:28;;;;;;;5.93;1.40;;;;;;;19.98;50.57;100586.72;5056208;28;20021;-64
2021/12/29 09:57:56;;;;;;;7.40;1.50;;;;;;;19.93;50.64;100587.16;5055083;28;20092;-68
2021/12/29 10:00:31;;;;;;;7.53;1.50;;;;;;;19.91;50.72;100591.72;5055926;28;20104;-68
2021/12/29 10:03:02;;;;;;;7.90;1.42;;;;;;;19.90;50.63;100595.38;5056187;28;20033;-66
2021/12/29 10:05:28;;;;;;;7.90;1.50;;;;;;;19.90;50.77;100591.88;5055405;28;20033;-69
2021/12/29 10:08:03;;;;;;;6.55;1.52;;;;;;;19.86;50.76;100599.28;5055197;28;20495;-68
2021/12/29 10:10:30;;;;;;;8.38;1.33;;;;;;;19.84;50.68;100605.69;5054833;28;20112;-68
2021/12/29 10:12:57;;;;;;;4.47;1.30;;;;;;;19.80;50.86;100609.59;5055208;28;20090;-67
2021/12/29 10:15:28;;;;;;;7.45;1.58;;;;;;;19.76;50.72;100601.09;5055655;28;20033;-68
2021/12/29 10:18:12;;;;;;;7.15;1.95;;;;;;;19.71;50.90;100598.84;5054781;28;20071;-67
2021/12/29 10:20:49;;;;;;;7.50;1.42;;;;;;;19.68;50.95;100600.94;5055009;28;20354;-67
2021/12/29 10:23:35;;;;;;;7.93;1.73;;;;;;;19.67;51.16;100594.81;5055164;28;20028;-66
2021/12/29 10:26:08;;;;;;;6.28;1.60;;;;;;;19.66;51.09;100590.50;5054524;28;20056;-67
2021/12/29 10:28:35;;;;;;;10.30;1.75;;;;;;;19.66;51.37;100581.72;5054942;28;20029;-67
2021/12/29 10:31:16;;;;;;;6.50;1.40;;;;;;;19.67;51.48;100575.47;5055383;28;20044;-67
2021/12/29 10:33:46;;;;;;;8.85;1.52;;;;;;;19.69;51.33;100581.44;5054087;28;20062;-69
2021/12/29 10:36:25;;;;;;;9.48;1.60;;;;;;;19.71;51.42;100569.78;5055577;28;20041;-66
2021/12/29 10:38:55;;;;;;;8.05;1.73;;;;;;;19.74;51.15;100560.69;5054274;28;20052;-67
2021/12/29 10:41:20;;;;;;;7.38;1.50;;;;;;;19.71;51.16;100569.78;5055595;28;20101;-68
2021/12/29 10:43:55;;;;;;;7.03;1.83;;;;;;;19.71;51.09;100574.19;5054750;28;20499;-66
2021/12/29 10:46:21;;;;;;;8.48;1.70;;;;;;;19.70;51.24;100569.91;5054285;28;20129;-67
2021/12/29 10:48:49;;;;;;;8.30;1.52;;;;;;;19.67;51.34;100559.63;5054886;28;20151;-67
2021/12/29 10:51:16;;;;;;;9.48;1.55;;;;;;;19.68;51.21;100564.75;5055028;28;20029;-68
2021/12/29 10:53:43;;;;;;;9.27;1.83;;;;;;;19.68;51.24;100561.28;5054174;28;20385;-66
2021/12/29 10:56:24;;;;;;;7.20;1.52;;;;;;;19.72;51.28;100565.31;5054993;28;20024;-68
2021/12/29 10:58:53;;;;;;;8.02;1.55;;;;;;;19.76;51.20;100561.44;5054787;28;20033;-70
2021/12/29 11:01:20;;;;;;;7.00;1.60;;;;;;;19.78;51.16;100569.25;5054897;28;20051;-69
2021/12/29 11:03:57;;;;;;;9.00;2.08;;;;;;;19.81;51.00;100587.47;5054753;28;20041;-69
2021/12/29 11:06:24;;;;;;;8.98;1.67;;;;;;;19.82;50.94;100595.25;5054834;28;20029;-69
2021/12/29 11:09:02;;;;;;;6.60;1.70;;;;;;;19.82;51.00;100595.25;5053444;28;20501;-69
2021/12/29 11:11:33;;;;;;;7.70;1.73;;;;;;;19.83;50.86;100581.03;5054572;28;20059;-68
2021/12/29 11:14:11;;;;;;;8.00;1.58;;;;;;;19.80;51.01;100573.38;5053612;28;20036;-65
2021/12/29 11:16:37;;;;;;;7.97;1.73;;;;;;;19.77;51.06;100578.97;5054005;28;20484;-65
2021/12/29 11:19:02;;;;;;;6.88;1.52;;;;;;;19.74;51.14;100580.06;5054301;28;20032;-65
2021/12/29 11:21:35;;;;;;;8.10;2.08;;;;;;;19.71;51.29;100580.34;5053392;28;20025;-65
2021/12/29 11:24:23;;;;;;;6.55;1.52;;;;;;;19.72;51.41;100578.53;5054426;28;20124;-69
2021/12/29 11:26:49;;;;;;;9.48;1.50;;;;;;;19.74;51.66;100564.19;5054863;28;20025;-68
2021/12/29 11:29:17;;;;;;;8.40;1.67;;;;;;;19.78;51.57;100562.13;5053685;28;20067;-69
2021/12/29 11:32:03;;;;;;;8.27;1.83;;;;;;;19.81;51.37;100561.84;5054236;28;20033;-67
2021/12/29 11:34:31;;;;;;;7.47;1.70;;;;;;;19.79;51.33;100540.00;5054023;28;20043;-67